Time;durP1;ratioP1;P1;durP2;ratioP2;P2;SDS_P1;SDS_P2;PMS_P1;PMS_P2;Temp;Humidity;BMP_temperature;BMP_pressure;BME280_temperature;BME280_humidity;BME280_pressure;Samples;Min_cycle;Max_cycle;Signal;HPM_P1;HPM_P2
2023/05/19 00:01:06;;;;;;;15.10;9.18;;;12.90;99.90;;;;;;5062438;28;20025;-69
2023/05/19 00:03:39;;;;;;;15.80;8.05;;;13.10;99.90;;;;;;5101473;27;20042;-68
2023/05/19 00:06:07;;;;;;;18.00;7.70;;;13.20;99.90;;;;;;5075802;28;20408;-70
2023/05/19 00:08:33;;;;;;;11.68;7.88;;;13.10;99.90;;;;;;5074305;28;20025;-71
2023/05/19 00:11:00;;;;;;;13.15;7.65;;;13.00;99.90;;;;;;5066987;28;20077;-71
2023/05/19 00:13:26;;;;;;;13.90;8.18;;;12.90;99.90;;;;;;5062342;28;20033;-73
2023/05/19 00:15:52;;;;;;;15.23;7.65;;;13.00;99.90;;;;;;5058898;28;20063;-72
2023/05/19 00:18:19;;;;;;;16.40;8.95;;;13.00;99.90;;;;;;5059414;28;20037;-73
2023/05/19 00:20:45;;;;;;;14.88;8.15;;;13.00;99.90;;;;;;5063310;28;20153;-72
2023/05/19 00:23:11;;;;;;;16.35;7.93;;;13.10;99.90;;;;;;5062102;28;20111;-73
2023/05/19 00:25:36;;;;;;;13.53;7.60;;;13.10;99.90;;;;;;5061931;28;20591;-72
2023/05/19 00:28:02;;;;;;;14.63;9.00;;;13.10;99.90;;;;;;5063248;28;20086;-70
2023/05/19 00:30:31;;;;;;;17.15;8.57;;;13.00;99.90;;;;;;5061216;28;20515;-69
2023/05/19 00:32:57;;;;;;;17.13;8.27;;;13.00;99.90;;;;;;5062109;28;20089;-70
2023/05/19 00:35:23;;;;;;;19.73;8.00;;;13.00;99.90;;;;;;5059216;28;20115;-72
2023/05/19 00:37:48;;;;;;;14.88;9.13;;;13.00;99.90;;;;;;5065039;28;20502;-72
2023/05/19 00:40:14;;;;;;;13.70;8.30;;;13.00;99.90;;;;;;5060954;28;20032;-71
2023/05/19 00:42:40;;;;;;;12.10;7.82;;;13.00;99.90;;;;;;5063195;28;20697;-69
2023/05/19 00:45:07;;;;;;;20.00;9.05;;;12.90;99.90;;;;;;5068468;28;20503;-73
2023/05/19 00:47:32;;;;;;;15.50;9.10;;;13.00;99.90;;;;;;5056221;28;20415;-72
2023/05/19 00:49:58;;;;;;;14.53;8.70;;;13.00;99.90;;;;;;5055246;28;20056;-70
2023/05/19 00:52:24;;;;;;;16.70;8.43;;;12.90;99.90;;;;;;5053044;28;20498;-69
2023/05/19 00:54:51;;;;;;;20.25;7.68;;;12.90;99.90;;;;;;5062341;28;20111;-73
2023/05/19 00:57:17;;;;;;;15.07;8.90;;;12.80;99.90;;;;;;5059370;28;20050;-72
2023/05/19 00:59:43;;;;;;;25.20;8.77;;;12.80;99.90;;;;;;5063975;28;20029;-69
2023/05/19 01:02:09;;;;;;;17.70;9.20;;;12.80;99.90;;;;;;5063142;28;20066;-68
2023/05/19 01:04:36;;;;;;;11.53;8.63;;;12.80;99.90;;;;;;5057720;28;20356;-71
2023/05/19 01:07:02;;;;;;;10.65;7.40;;;12.80;99.90;;;;;;5057737;28;20395;-71
2023/05/19 01:09:29;;;;;;;13.75;9.13;;;12.70;99.90;;;;;;5061241;28;20032;-71
2023/05/19 01:11:55;;;;;;;16.33;8.50;;;12.80;99.90;;;;;;5055175;28;20044;-72
2023/05/19 01:14:21;;;;;;;13.63;8.60;;;12.80;99.90;;;;;;5050454;28;20400;-71
2023/05/19 01:17:04;;;;;;;19.08;8.63;;;12.80;99.90;;;;;;5055107;28;21214;-72
2023/05/19 01:19:55;;;;;;;15.40;8.70;;;12.70;99.90;;;;;;5057266;28;20403;-70
2023/05/19 01:22:48;;;;;;;13.48;8.68;;;12.70;99.90;;;;;;5060370;28;20025;-71
2023/05/19 01:25:23;;;;;;;13.60;8.35;;;12.70;99.90;;;;;;5060522;28;20036;-73
2023/05/19 01:28:05;;;;;;;17.23;9.23;;;12.70;99.90;;;;;;5055659;28;20032;-69
2023/05/19 01:30:39;;;;;;;14.60;8.65;;;12.50;99.90;;;;;;5055583;28;20505;-69
2023/05/19 01:33:08;;;;;;;14.02;8.25;;;12.60;99.90;;;;;;5058503;28;20024;-71
2023/05/19 01:35:36;;;;;;;16.75;9.95;;;12.60;99.90;;;;;;5055950;28;20016;-72
2023/05/19 01:38:06;;;;;;;15.40;9.25;;;12.50;99.90;;;;;;5049146;28;20031;-70
2023/05/19 01:40:33;;;;;;;13.93;8.65;;;12.50;99.90;;;;;;5063583;28;20029;-72
2023/05/19 01:43:00;;;;;;;15.50;9.73;;;12.40;99.90;;;;;;5089564;28;20123;-72
2023/05/19 01:45:28;;;;;;;13.75;8.73;;;12.40;99.90;;;;;;5061129;28;20067;-71
2023/05/19 01:47:57;;;;;;;14.13;8.70;;;12.20;99.90;;;;;;5058369;28;20711;-70
2023/05/19 01:50:23;;;;;;;18.88;9.65;;;12.20;99.90;;;;;;5054468;28;20036;-69
2023/05/19 01:52:50;;;;;;;13.07;8.95;;;12.20;99.90;;;;;;5058338;28;20472;-68
2023/05/19 01:55:15;;;;;;;;;;;12.10;99.90;;;;;;5057923;28;20443;-71
2023/05/19 01:58:05;;;;;;;15.90;8.50;;;12.00;99.90;;;;;;5058763;28;20463;-71
2023/05/19 02:00:31;;;;;;;14.98;8.15;;;12.00;99.90;;;;;;5058043;28;20152;-73
2023/05/19 02:03:24;;;;;;;15.20;9.03;;;12.00;99.90;;;;;;5060274;28;20111;-71
2023/05/19 02:05:52;;;;;;;19.05;8.77;;;11.90;99.90;;;;;;5054900;28;20298;-71
2023/05/19 02:08:25;;;;;;;13.73;7.93;;;12.00;99.90;;;;;;5057312;28;20032;-70
2023/05/19 02:10:56;;;;;;;11.85;8.27;;;12.00;99.90;;;;;;5059658;28;20558;-72
2023/05/19 02:13:25;;;;;;;14.50;8.82;;;12.10;99.90;;;;;;5065039;28;20016;-69
2023/05/19 02:15:52;;;;;;;13.18;8.00;;;12.20;99.90;;;;;;5056430;28;20036;-73
2023/05/19 02:18:19;;;;;;;18.42;8.70;;;12.00;99.90;;;;;;5063428;28;20024;-74
2023/05/19 02:20:44;;;;;;;13.93;8.55;;;11.90;99.90;;;;;;5091224;27;20156;-73
2023/05/19 02:23:10;;;;;;;12.50;8.53;;;11.90;99.90;;;;;;5057656;28;20474;-72
2023/05/19 02:25:36;;;;;;;13.63;8.40;;;12.00;99.90;;;;;;5060835;28;20095;-69
2023/05/19 02:28:01;;;;;;;14.10;8.40;;;12.00;99.90;;;;;;5094081;27;20115;-72
2023/05/19 02:30:27;;;;;;;13.70;9.30;;;12.00;99.90;;;;;;5056101;28;20032;-72
2023/05/19 02:32:53;;;;;;;18.07;9.47;;;11.80;99.90;;;;;;5059093;28;20492;-70
2023/05/19 02:35:19;;;;;;;15.93;9.90;;;11.90;99.90;;;;;;5060502;28;20028;-70
2023/05/19 02:37:45;;;;;;;15.65;9.43;;;11.70;99.90;;;;;;5059288;28;20163;-69
2023/05/19 02:40:10;;;;;;;20.83;8.87;;;11.70;99.90;;;;;;5059014;28;20518;-72
2023/05/19 02:42:36;;;;;;;22.57;9.63;;;11.60;99.90;;;;;;5061111;28;20035;-72
2023/05/19 02:45:02;;;;;;;16.00;8.90;;;11.60;99.90;;;;;;5056796;28;20044;-69
2023/05/19 02:47:27;;;;;;;18.57;9.13;;;11.60;99.90;;;;;;5062026;28;20028;-72
2023/05/19 02:49:53;;;;;;;12.87;9.17;;;11.60;99.90;;;;;;5061491;28;20060;-73
2023/05/19 02:52:18;;;;;;;17.43;10.13;;;11.50;99.90;;;;;;5058306;28;20072;-70
2023/05/19 02:54:44;;;;;;;15.57;8.87;;;11.50;99.90;;;;;;5054891;28;20067;-74
2023/05/19 02:57:10;;;;;;;14.37;9.80;;;11.50;99.90;;;;;;5059098;28;20047;-73
2023/05/19 02:59:36;;;;;;;16.27;9.07;;;11.50;99.90;;;;;;5056263;28;20041;-71
2023/05/19 03:02:02;;;;;;;14.55;9.40;;;11.50;99.90;;;;;;5061257;28;20039;-71
2023/05/19 03:04:28;;;;;;;11.50;8.57;;;11.40;99.90;;;;;;5063951;28;20036;-72
2023/05/19 03:06:54;;;;;;;14.02;9.15;;;11.40;99.90;;;;;;5056782;28;20405;-72
2023/05/19 03:09:20;;;;;;;14.95;9.63;;;11.40;99.90;;;;;;5056983;28;20043;-71
2023/05/19 03:11:45;;;;;;;21.50;9.70;;;11.40;99.90;;;;;;5054249;28;20029;-69
2023/05/19 03:14:12;;;;;;;14.23;9.73;;;11.30;99.90;;;;;;5058542;28;20584;-69
2023/05/19 03:16:40;;;;;;;15.40;9.25;;;11.40;99.90;;;;;;5053050;28;20492;-71
2023/05/19 03:19:07;;;;;;;14.82;9.00;;;11.40;99.90;;;;;;5056032;28;20065;-70
2023/05/19 03:21:33;;;;;;;17.33;8.68;;;11.40;99.90;;;;;;5064387;28;20377;-69
2023/05/19 03:24:01;;;;;;;16.50;9.52;;;11.40;99.90;;;;;;5057026;28;20040;-74
2023/05/19 03:26:28;;;;;;;19.40;9.40;;;11.20;99.90;;;;;;5057731;28;20016;-72
2023/05/19 03:28:54;;;;;;;13.65;9.20;;;11.40;99.90;;;;;;5064913;28;20396;-70
2023/05/19 03:31:19;;;;;;;17.42;9.48;;;11.40;99.90;;;;;;5051314;28;20047;-72
2023/05/19 03:33:45;;;;;;;14.57;8.90;;;11.30;99.90;;;;;;5058755;28;20021;-69
2023/05/19 03:36:11;;;;;;;19.70;9.83;;;11.30;99.90;;;;;;5065539;28;20043;-70
2023/05/19 03:38:37;;;;;;;20.30;10.02;;;11.40;99.90;;;;;;5067526;28;20021;-69
2023/05/19 03:41:03;;;;;;;13.27;8.73;;;11.50;99.90;;;;;;5056614;28;20052;-71
2023/05/19 03:43:28;;;;;;;19.80;8.88;;;11.50;99.90;;;;;;5060270;28;20040;-72
2023/05/19 03:45:54;;;;;;;12.87;8.53;;;11.40;99.90;;;;;;5054101;28;20075;-71
2023/05/19 03:48:19;;;;;;;18.20;8.70;;;11.40;99.90;;;;;;5058653;28;20031;-70
2023/05/19 03:50:47;;;;;;;12.00;8.93;;;11.50;99.90;;;;;;5057244;28;20427;-71
2023/05/19 03:53:12;;;;;;;17.10;9.52;;;11.50;99.90;;;;;;5058342;28;20073;-71
2023/05/19 03:55:38;;;;;;;14.07;9.30;;;11.40;99.90;;;;;;5057575;28;20115;-71
2023/05/19 03:58:04;;;;;;;13.83;9.60;;;11.30;99.90;;;;;;5059068;28;20017;-70
2023/05/19 04:00:29;;;;;;;15.17;9.13;;;11.10;99.90;;;;;;5061289;28;20041;-72
2023/05/19 04:02:55;;;;;;;16.38;9.40;;;11.10;99.90;;;;;;5062596;28;20464;-71
2023/05/19 04:05:21;;;;;;;11.90;8.63;;;11.00;99.90;;;;;;5059548;28;20111;-71
2023/05/19 04:07:46;;;;;;;16.67;9.50;;;11.30;99.90;;;;;;5051593;28;20055;-69
2023/05/19 04:10:12;;;;;;;22.43;10.13;;;11.20;99.90;;;;;;5054592;28;20119;-72
2023/05/19 04:12:38;;;;;;;12.90;8.95;;;11.10;99.90;;;;;;5056816;28;20052;-67
2023/05/19 04:15:07;;;;;;;15.77;8.40;;;11.10;99.90;;;;;;5055161;28;20071;-70
2023/05/19 04:17:32;;;;;;;12.93;9.15;;;11.10;99.90;;;;;;5056811;28;20036;-69
2023/05/19 04:19:58;;;;;;;15.77;9.63;;;11.10;99.90;;;;;;5053770;28;20286;-72
2023/05/19 04:22:24;;;;;;;14.50;9.07;;;11.20;99.90;;;;;;5054877;28;20029;-68
2023/05/19 04:24:51;;;;;;;13.37;9.80;;;11.20;99.90;;;;;;5060220;28;20128;-71
2023/05/19 04:27:17;;;;;;;15.57;9.13;;;11.20;99.90;;;;;;5055837;28;20081;-73
2023/05/19 04:29:44;;;;;;;13.20;8.87;;;11.20;99.90;;;;;;5060407;28;20033;-68
2023/05/19 04:32:10;;;;;;;14.55;8.93;;;11.20;99.90;;;;;;5055958;28;20149;-70
2023/05/19 04:34:39;;;;;;;14.25;9.93;;;11.10;99.90;;;;;;5055454;28;20160;-70
2023/05/19 04:37:06;;;;;;;16.02;9.15;;;10.90;99.90;;;;;;5060169;28;20033;-69
2023/05/19 04:39:32;;;;;;;18.27;9.50;;;11.00;99.90;;;;;;5058597;28;20111;-72
2023/05/19 04:41:58;;;;;;;16.30;9.67;;;11.00;99.90;;;;;;5062646;28;20132;-69
2023/05/19 04:44:24;;;;;;;;;;;11.10;99.90;;;;;;5058052;28;20306;-71
2023/05/19 04:46:52;;;;;;;15.60;9.38;;;11.20;99.90;;;;;;5055370;28;20284;-70
2023/05/19 04:49:19;;;;;;;16.83;8.32;;;11.10;99.90;;;;;;5059913;28;20036;-69
2023/05/19 04:51:44;;;;;;;17.83;10.55;;;11.20;99.90;;;;;;5057659;28;20036;-72
2023/05/19 04:54:10;;;;;;;18.00;8.93;;;11.20;99.90;;;;;;5055544;28;20039;-69
2023/05/19 04:56:36;;;;;;;17.33;10.30;;;11.30;99.90;;;;;;5056781;28;20035;-69
2023/05/19 04:59:01;;;;;;;14.90;9.73;;;11.30;99.90;;;;;;5055724;28;20072;-70
2023/05/19 05:01:27;;;;;;;17.33;8.40;;;11.30;99.90;;;;;;5052751;28;20031;-70
2023/05/19 05:03:54;;;;;;;11.87;8.53;;;11.20;99.90;;;;;;5055003;28;20115;-72
2023/05/19 05:06:24;;;;;;;15.57;9.77;;;11.20;99.90;;;;;;5056717;28;20116;-72
2023/05/19 05:08:51;;;;;;;20.38;9.63;;;11.30;99.90;;;;;;5057430;28;20028;-69
2023/05/19 05:11:16;;;;;;;16.38;9.43;;;11.30;99.90;;;;;;5056753;28;20082;-68
2023/05/19 05:13:42;;;;;;;20.80;9.10;;;11.30;99.90;;;;;;5060298;28;20504;-69
2023/05/19 05:16:09;;;;;;;17.77;10.55;;;11.50;99.90;;;;;;5057639;28;20094;-71
2023/05/19 05:18:37;;;;;;;21.77;9.90;;;11.90;99.90;;;;;;5051209;28;20021;-69
2023/05/19 05:21:03;;;;;;;15.45;8.95;;;12.20;99.90;;;;;;5063944;28;20025;-69
2023/05/19 05:23:29;;;;;;;17.77;9.32;;;13.60;99.90;;;;;;5060716;28;20028;-69
2023/05/19 05:25:55;;;;;;;15.23;8.20;;;14.60;99.90;;;;;;5056700;28;20062;-70
2023/05/19 05:28:20;;;;;;;11.87;8.07;;;14.90;99.90;;;;;;5056813;28;20025;-68
2023/05/19 05:30:47;;;;;;;13.10;8.30;;;15.20;99.90;;;;;;5057781;28;20291;-71
2023/05/19 05:33:13;;;;;;;21.88;9.48;;;16.50;96.70;;;;;;5058860;28;20040;-70
2023/05/19 05:35:39;;;;;;;13.82;7.80;;;17.30;93.50;;;;;;5056022;28;20485;-69
2023/05/19 05:38:05;;;;;;;13.50;7.17;;;17.80;91.60;;;;;;5049062;28;20186;-71
2023/05/19 05:40:31;;;;;;;17.95;9.00;;;18.20;89.10;;;;;;5056836;28;20798;-71
2023/05/19 05:42:57;;;;;;;13.33;8.00;;;18.90;86.30;;;;;;5055217;28;20127;-69
2023/05/19 05:45:23;;;;;;;11.88;7.15;;;19.50;84.20;;;;;;5056028;28;20604;-71
2023/05/19 05:47:50;;;;;;;15.10;8.07;;;19.90;80.10;;;;;;5055031;28;20107;-70
2023/05/19 05:50:16;;;;;;;13.48;7.03;;;20.50;79.30;;;;;;5058194;28;20416;-71
2023/05/19 05:52:45;;;;;;;13.07;7.43;;;21.00;76.60;;;;;;5058382;28;20025;-69
2023/05/19 05:55:12;;;;;;;11.23;6.55;;;21.40;74.70;;;;;;5056562;28;20560;-69
2023/05/19 05:57:40;;;;;;;13.73;6.65;;;21.60;73.30;;;;;;5057308;28;20562;-68
2023/05/19 06:00:14;;;;;;;16.05;7.32;;;22.10;73.30;;;;;;5058896;28;20037;-70
2023/05/19 06:02:45;;;;;;;13.18;7.30;;;22.50;71.00;;;;;;5057715;28;20068;-71
2023/05/19 06:05:11;;;;;;;15.57;7.10;;;22.60;70.10;;;;;;5061911;28;20043;-69
2023/05/19 06:07:37;;;;;;;13.85;7.32;;;22.10;71.60;;;;;;5058436;28;20399;-69
2023/05/19 06:10:04;;;;;;;27.33;7.68;;;21.00;72.20;;;;;;5055431;28;20523;-73
2023/05/19 06:12:29;;;;;;;13.43;7.10;;;19.50;75.60;;;;;;5053509;28;20044;-73
2023/05/19 06:14:55;;;;;;;17.30;6.97;;;18.80;78.60;;;;;;5056684;28;20040;-73
2023/05/19 06:17:21;;;;;;;15.00;7.17;;;18.20;80.60;;;;;;5057101;28;20032;-73
2023/05/19 06:19:46;;;;;;;10.50;6.27;;;18.00;82.30;;;;;;5054536;28;20500;-70
2023/05/19 06:22:12;;;;;;;10.03;6.43;;;18.70;81.20;;;;;;5055089;28;20075;-70
2023/05/19 06:24:37;;;;;;;15.67;6.90;;;18.80;79.90;;;;;;5057322;28;20037;-72
2023/05/19 06:27:03;;;;;;;13.20;7.20;;;18.30;81.60;;;;;;5053315;28;20498;-71
2023/05/19 06:29:29;;;;;;;15.48;7.00;;;18.10;83.20;;;;;;5055047;28;20365;-70
2023/05/19 06:31:55;;;;;;;17.60;8.37;;;18.00;83.40;;;;;;5058853;28;20523;-68
2023/05/19 06:34:20;;;;;;;15.48;7.03;;;17.70;84.50;;;;;;5059761;28;20404;-68
2023/05/19 06:36:46;;;;;;;14.67;7.10;;;18.80;82.20;;;;;;5059082;28;20698;-73
2023/05/19 06:39:11;;;;;;;20.40;7.90;;;18.20;82.10;;;;;;5050370;28;20032;-73
2023/05/19 06:41:37;;;;;;;17.10;7.97;;;17.40;85.10;;;;;;5061136;28;20450;-75
2023/05/19 06:44:03;;;;;;;14.53;7.40;;;16.90;86.40;;;;;;5058644;28;20465;-70
2023/05/19 06:46:29;;;;;;;22.17;8.05;;;16.60;89.40;;;;;;5049678;28;20122;-68
2023/05/19 06:48:54;;;;;;;15.03;7.47;;;16.60;89.50;;;;;;5055160;28;20037;-68
2023/05/19 06:51:21;;;;;;;15.83;7.60;;;16.80;89.30;;;;;;5056879;28;20754;-75
2023/05/19 06:53:47;;;;;;;;;;;16.90;89.30;;;;;;5052914;28;20025;-72
2023/05/19 06:56:14;;;;;;;13.88;7.43;;;17.30;89.00;;;;;;5057324;28;19912;-72
2023/05/19 06:58:39;;;;;;;15.85;7.50;;;17.00;89.40;;;;;;5057648;28;20051;-69
2023/05/19 07:01:05;;;;;;;15.43;7.77;;;16.70;90.00;;;;;;5058319;28;20021;-69
2023/05/19 07:03:31;;;;;;;16.73;8.60;;;16.80;90.20;;;;;;5058431;28;20520;-68
2023/05/19 07:05:56;;;;;;;14.10;7.70;;;16.70;90.30;;;;;;5062209;28;20086;-68
2023/05/19 07:08:22;;;;;;;16.40;7.67;;;17.40;90.10;;;;;;5068557;28;20035;-70
2023/05/19 07:10:48;;;;;;;13.73;8.13;;;17.90;87.90;;;;;;5074266;28;20048;-71
2023/05/19 07:13:13;;;;;;;12.03;7.27;;;17.40;88.50;;;;;;5063813;28;20047;-71
2023/05/19 07:15:39;;;;;;;11.97;7.53;;;17.40;89.90;;;;;;5059985;28;20059;-72
2023/05/19 07:18:04;;;;;;;12.83;7.73;;;17.60;88.30;;;;;;5057645;28;20040;-69
2023/05/19 07:20:30;;;;;;;13.67;7.47;;;17.20;88.60;;;;;;5062799;28;20033;-70
2023/05/19 07:22:55;;;;;;;19.27;8.93;;;16.70;90.10;;;;;;5063231;28;20044;-71
2023/05/19 07:25:21;;;;;;;15.10;8.13;;;16.70;90.60;;;;;;5068115;28;20045;-70
2023/05/19 07:27:47;;;;;;;13.33;8.50;;;16.70;91.00;;;;;;5061606;28;20033;-70
2023/05/19 07:30:13;;;;;;;14.40;8.17;;;16.80;91.00;;;;;;5055661;28;20148;-71
2023/05/19 07:32:38;;;;;;;13.32;8.45;;;16.70;91.10;;;;;;5059248;28;20025;-70
2023/05/19 07:35:05;;;;;;;15.63;8.10;;;16.60;90.80;;;;;;5061838;28;20044;-67
2023/05/19 07:37:30;;;;;;;;;;;16.70;91.60;;;;;;5055749;28;20035;-68
2023/05/19 07:39:56;;;;;;;14.88;7.60;;;16.90;90.70;;;;;;5062005;28;19904;-70
2023/05/19 07:42:22;;;;;;;13.63;7.67;;;17.30;91.00;;;;;;5062260;28;20107;-75
2023/05/19 07:44:47;;;;;;;13.50;7.40;;;17.00;90.40;;;;;;5057696;28;20862;-72
2023/05/19 07:47:13;;;;;;;17.37;8.63;;;16.80;90.80;;;;;;5056056;28;20055;-73
2023/05/19 07:49:38;;;;;;;16.07;8.43;;;16.80;91.50;;;;;;5058038;28;20036;-73
2023/05/19 07:52:04;;;;;;;14.50;8.20;;;16.80;91.40;;;;;;5056407;28;20408;-75
2023/05/19 07:54:30;;;;;;;12.68;8.40;;;17.10;91.30;;;;;;5059218;28;20036;-75
2023/05/19 07:56:56;;;;;;;18.77;7.87;;;17.00;90.50;;;;;;5055319;28;20035;-71
2023/05/19 07:59:21;;;;;;;13.17;7.13;;;17.20;90.70;;;;;;5092938;27;20646;-75
2023/05/19 08:01:47;;;;;;;15.90;8.20;;;17.10;90.90;;;;;;5057100;28;20079;-72
2023/05/19 08:04:13;;;;;;;14.48;8.55;;;17.10;90.80;;;;;;5061527;28;20294;-75
2023/05/19 08:06:39;;;;;;;12.63;8.13;;;17.30;90.20;;;;;;5066741;28;20097;-76
2023/05/19 08:09:04;;;;;;;13.23;7.53;;;17.80;90.00;;;;;;5051280;28;20021;-74
2023/05/19 08:11:30;;;;;;;17.47;7.60;;;18.40;87.50;;;;;;5060082;28;20290;-75
2023/05/19 08:13:56;;;;;;;18.53;8.50;;;18.60;86.60;;;;;;5060864;28;20078;-74
2023/05/19 08:16:21;;;;;;;13.13;7.05;;;18.90;84.60;;;;;;5057500;28;20091;-73
2023/05/19 08:18:47;;;;;;;13.77;7.23;;;19.20;83.80;;;;;;5059048;28;20044;-74
2023/05/19 08:21:13;;;;;;;16.17;8.13;;;19.90;82.00;;;;;;5062040;28;20058;-69
2023/05/19 08:23:38;;;;;;;13.10;7.20;;;20.80;79.00;;;;;;5061062;28;20555;-73
2023/05/19 08:26:04;;;;;;;13.40;8.10;;;22.50;75.10;;;;;;5055483;28;20040;-71
2023/05/19 08:28:30;;;;;;;14.98;7.80;;;23.10;74.00;;;;;;5063333;28;20480;-71
2023/05/19 08:30:55;;;;;;;13.40;7.37;;;23.00;70.10;;;;;;5062150;28;20041;-73
2023/05/19 08:33:21;;;;;;;15.43;7.70;;;24.10;70.70;;;;;;5054323;28;20778;-73
2023/05/19 08:35:47;;;;;;;14.65;7.05;;;23.10;68.60;;;;;;5053119;28;20038;-73
2023/05/19 08:38:13;;;;;;;11.70;6.30;;;22.70;69.60;;;;;;5060126;28;20040;-74
2023/05/19 08:40:41;;;;;;;14.32;6.22;;;24.10;69.40;;;;;;5086607;28;20542;-75
2023/05/19 08:43:07;;;;;;;10.80;6.75;;;24.80;66.40;;;;;;5058165;28;20464;-75
2023/05/19 08:45:33;;;;;;;14.18;7.18;;;22.80;69.70;;;;;;5054666;28;20047;-75
2023/05/19 08:47:59;;;;;;;11.73;6.47;;;21.60;71.10;;;;;;5062984;28;20055;-74
2023/05/19 08:50:29;;;;;;;12.05;7.15;;;21.30;73.20;;;;;;5076418;28;20483;-73
2023/05/19 08:53:06;;;;;;;15.05;8.63;;;21.20;72.20;;;;;;5072166;28;20029;-75
2023/05/19 08:55:38;;;;;;;14.93;6.97;;;20.90;75.20;;;;;;5056219;28;20044;-73
2023/05/19 08:58:04;;;;;;;12.63;7.93;;;20.90;76.20;;;;;;5065024;28;20464;-76
2023/05/19 09:00:30;;;;;;;16.58;8.82;;;21.20;74.70;;;;;;5055002;28;20025;-73
2023/05/19 09:02:56;;;;;;;16.48;8.65;;;21.00;75.40;;;;;;5056176;28;20040;-77
2023/05/19 09:05:22;;;;;;;11.52;7.88;;;22.20;74.00;;;;;;5062250;28;20043;-72
2023/05/19 09:07:48;;;;;;;19.77;8.75;;;23.80;70.80;;;;;;5057279;28;20036;-74
2023/05/19 09:10:15;;;;;;;14.13;7.28;;;25.40;67.60;;;;;;5053473;28;20029;-73
2023/05/19 09:12:47;;;;;;;10.20;6.82;;;25.30;67.40;;;;;;5055979;28;20116;-69
2023/05/19 09:15:16;;;;;;;14.75;7.47;;;25.30;67.90;;;;;;5053376;28;20083;-74
2023/05/19 09:17:43;;;;;;;15.95;6.35;;;25.40;64.40;;;;;;5054436;28;20102;-74
2023/05/19 09:20:12;;;;;;;9.32;6.60;;;25.90;65.00;;;;;;5056870;28;20446;-74
2023/05/19 09:22:46;;;;;;;9.70;5.70;;;26.50;63.20;;;;;;5059890;28;20028;-74
2023/05/19 09:25:45;;;;;;;12.60;6.65;;;26.30;63.30;;;;;;5054362;28;20602;-72
2023/05/19 09:28:11;;;;;;;13.40;5.78;;;26.50;63.70;;;;;;5057678;28;20025;-71
2023/05/19 09:30:36;;;;;;;12.43;5.25;;;27.20;63.60;;;;;;5052511;28;20036;-72
2023/05/19 09:33:03;;;;;;;16.42;6.03;;;27.00;60.30;;;;;;5056170;28;20037;-73
2023/05/19 09:35:28;;;;;;;7.55;5.55;;;26.50;62.80;;;;;;5056763;28;20082;-72
2023/05/19 09:37:54;;;;;;;13.05;5.65;;;27.30;61.60;;;;;;5064343;28;20149;-74
2023/05/19 09:40:20;;;;;;;12.35;4.85;;;26.50;61.00;;;;;;5062058;28;20492;-74
2023/05/19 09:42:47;;;;;;;8.93;5.15;;;27.40;60.60;;;;;;5060227;28;20387;-73
2023/05/19 09:45:13;;;;;;;8.32;4.97;;;28.30;62.40;;;;;;5058550;28;20450;-73
2023/05/19 09:47:40;;;;;;;13.27;5.00;;;28.10;59.90;;;;;;5057757;28;20033;-73
2023/05/19 09:50:11;;;;;;;10.40;5.28;;;26.60;60.90;;;;;;5058176;28;20045;-72
2023/05/19 09:52:37;;;;;;;9.90;4.72;;;24.90;61.20;;;;;;5058514;28;20116;-73
2023/05/19 09:55:07;;;;;;;8.00;4.82;;;25.50;63.20;;;;;;5051869;28;20037;-74
2023/05/19 09:57:35;;;;;;;7.82;4.70;;;27.10;62.50;;;;;;5057247;28;20025;-73
2023/05/19 10:00:10;;;;;;;10.20;5.13;;;26.50;61.30;;;;;;5055426;28;20589;-73
2023/05/19 10:02:38;;;;;;;11.07;5.60;;;26.80;61.60;;;;;;5054511;28;20509;-75
2023/05/19 10:05:05;;;;;;;7.18;4.60;;;27.20;61.00;;;;;;5060829;28;20035;-74
2023/05/19 10:07:33;;;;;;;7.78;4.97;;;27.60;62.60;;;;;;5064151;28;20433;-73
2023/05/19 10:09:59;;;;;;;12.13;5.10;;;28.00;60.90;;;;;;5053344;28;20024;-72
2023/05/19 10:12:25;;;;;;;13.63;4.30;;;28.20;59.50;;;;;;5061833;28;20043;-74
2023/05/19 10:14:53;;;;;;;7.07;4.28;;;25.70;59.20;;;;;;5059698;28;20270;-74
2023/05/19 10:17:20;;;;;;;13.77;4.45;;;24.60;61.90;;;;;;5062127;28;20612;-74
2023/05/19 10:19:49;;;;;;;7.55;4.03;;;24.90;62.60;;;;;;5059799;28;20159;-75
2023/05/19 10:22:15;;;;;;;9.32;4.45;;;24.70;63.40;;;;;;5065988;28;20107;-74
2023/05/19 10:24:42;;;;;;;10.30;4.03;;;25.10;64.40;;;;;;5054084;28;20173;-72
2023/05/19 10:27:10;;;;;;;;;;;24.90;61.80;;;;;;5057972;28;20032;-72
2023/05/19 10:29:41;;;;;;;8.88;4.57;;;24.50;62.50;;;;;;5060867;28;19967;-73
2023/05/19 10:32:15;;;;;;;7.97;4.65;;;23.90;62.20;;;;;;5071796;28;20043;-69
2023/05/19 10:35:10;;;;;;;6.28;4.10;;;23.30;63.00;;;;;;5067092;28;20071;-71
2023/05/19 10:37:58;;;;;;;7.43;4.28;;;23.20;65.50;;;;;;5092081;27;20062;-73
2023/05/19 10:40:28;;;;;;;7.75;3.83;;;23.30;64.50;;;;;;5064926;28;20488;-71
2023/05/19 10:43:01;;;;;;;8.38;4.10;;;23.20;63.80;;;;;;5091483;28;20025;-71
2023/05/19 10:45:33;;;;;;;12.90;4.10;;;23.20;64.10;;;;;;5062947;28;20032;-72
2023/05/19 10:47:59;;;;;;;13.20;4.40;;;22.80;64.90;;;;;;5061626;28;20485;-72
2023/05/19 10:50:25;;;;;;;7.55;3.80;;;22.00;67.00;;;;;;5057595;28;20083;-72
2023/05/19 10:52:55;;;;;;;8.85;4.45;;;22.20;68.50;;;;;;5060158;28;20458;-72
2023/05/19 10:55:45;;;;;;;7.38;3.90;;;22.10;66.50;;;;;;5059355;28;20121;-73
2023/05/19 10:58:11;;;;;;;8.70;4.55;;;22.20;70.00;;;;;;5072081;28;20033;-71
2023/05/19 11:00:38;;;;;;;15.20;5.13;;;22.20;68.30;;;;;;5059269;28;20536;-72
2023/05/19 11:03:22;;;;;;;5.88;3.70;;;22.10;68.20;;;;;;5057464;28;20044;-75
2023/05/19 11:05:51;;;;;;;8.43;4.28;;;21.90;66.10;;;;;;5062029;28;20111;-76
2023/05/19 11:08:33;;;;;;;19.05;5.65;;;22.10;69.40;;;;;;5056909;28;20130;-75
2023/05/19 11:11:15;;;;;;;9.63;4.15;;;22.40;69.20;;;;;;5059640;28;20037;-75
2023/05/19 11:13:50;;;;;;;13.88;4.38;;;22.30;67.20;;;;;;5056751;28;20045;-74
2023/05/19 11:16:19;;;;;;;9.25;3.72;;;22.30;69.60;;;;;;5056784;28;20028;-70
2023/05/19 11:18:49;;;;;;;14.27;4.70;;;22.30;68.80;;;;;;5057530;28;20017;-73
2023/05/19 11:21:15;;;;;;;128.45;28.95;;;22.40;73.50;;;;;;5058308;28;20036;-72
2023/05/19 11:23:42;;;;;;;27.73;9.20;;;22.50;73.30;;;;;;5056014;28;20055;-67
2023/05/19 11:26:08;;;;;;;89.38;24.83;;;22.80;76.10;;;;;;5061574;28;20085;-67
2023/05/19 11:28:34;;;;;;;10.55;4.50;;;22.90;73.10;;;;;;5058935;28;20504;-67
2023/05/19 11:31:01;;;;;;;8.88;4.07;;;22.80;75.90;;;;;;5060909;28;20036;-69
2023/05/19 11:33:26;;;;;;;17.20;7.60;;;22.30;72.10;;;;;;5062591;28;20023;-70
2023/05/19 11:35:56;;;;;;;11.55;4.30;;;22.20;72.50;;;;;;5058418;28;20408;-68
2023/05/19 11:38:22;;;;;;;20.63;7.97;;;22.20;74.10;;;;;;5059549;28;20534;-69
2023/05/19 11:40:51;;;;;;;11.60;3.38;;;22.20;72.30;;;;;;5058982;28;20454;-72
2023/05/19 11:43:17;;;;;;;13.20;4.72;;;22.00;67.80;;;;;;5057689;28;20048;-68
2023/05/19 11:45:43;;;;;;;11.85;4.22;;;21.70;67.70;;;;;;5059336;28;20033;-67
2023/05/19 11:48:12;;;;;;;16.75;5.00;;;21.90;70.10;;;;;;5060808;28;20119;-68
2023/05/19 11:50:40;;;;;;;6.05;3.10;;;21.80;71.40;;;;;;5063324;28;20787;-66
2023/05/19 11:53:06;;;;;;;7.93;3.50;;;21.70;69.70;;;;;;5058081;28;20025;-68
2023/05/19 11:55:32;;;;;;;18.85;3.38;;;21.70;70.40;;;;;;5060932;28;20052;-72
2023/05/19 11:58:02;;;;;;;10.33;3.40;;;21.80;74.00;;;;;;5060009;28;20396;-68
2023/05/19 12:00:35;;;;;;;6.03;3.05;;;21.90;71.30;;;;;;5061072;28;20286;-67
2023/05/19 12:03:01;;;;;;;7.93;3.80;;;21.80;71.40;;;;;;5063874;28;20050;-71
2023/05/19 12:05:28;;;;;;;6.63;4.75;;;21.80;70.60;;;;;;5062751;28;20111;-72
2023/05/19 12:07:54;;;;;;;9.52;4.57;;;21.60;72.30;;;;;;5065445;28;20166;-69
2023/05/19 12:10:27;;;;;;;;;;;21.50;72.30;;;;;;5060617;28;20059;-73
2023/05/19 12:12:54;;;;;;;9.52;3.72;;;21.60;72.50;;;;;;5061183;28;19915;-72
2023/05/19 12:15:20;;;;;;;7.93;3.65;;;21.50;72.40;;;;;;5065730;28;20073;-74
2023/05/19 12:17:57;;;;;;;15.43;3.92;;;21.30;71.10;;;;;;5056037;28;20009;-73
2023/05/19 12:20:24;;;;;;;7.10;3.47;;;21.40;73.40;;;;;;5070013;28;20115;-71
2023/05/19 12:22:50;;;;;;;6.75;3.38;;;21.40;71.50;;;;;;5067368;28;20089;-73
2023/05/19 12:25:16;;;;;;;9.13;3.70;;;21.50;71.80;;;;;;5068830;28;20029;-69
2023/05/19 12:27:43;;;;;;;8.40;3.33;;;21.40;71.70;;;;;;5054384;28;20037;-68
2023/05/19 12:30:09;;;;;;;7.80;3.30;;;21.40;69.60;;;;;;5061448;28;20380;-72
2023/05/19 12:32:35;;;;;;;11.75;4.05;;;21.30;72.20;;;;;;5065614;28;20021;-71
2023/05/19 12:35:05;;;;;;;18.85;3.80;;;21.20;73.00;;;;;;5058707;28;20048;-66
2023/05/19 12:37:33;;;;;;;10.02;4.38;;;21.20;72.80;;;;;;5054670;28;20032;-71
2023/05/19 12:40:00;;;;;;;9.20;3.30;;;21.00;72.50;;;;;;5062144;28;20052;-72
2023/05/19 12:42:30;;;;;;;8.27;3.85;;;20.90;73.60;;;;;;5059487;28;20054;-69